Time;durP1;ratioP1;P1;durP2;ratioP2;P2;SDS_P1;SDS_P2;PMS_P1;PMS_P2;Temp;Humidity;BMP_temperature;BMP_pressure;BME280_temperature;BME280_humidity;BME280_pressure;Samples;Min_cycle;Max_cycle;Signal;HPM_P1;HPM_P2
2022/03/12 00:00:07;;;;;;;8.93;8.07;;;;;;;1.00;64.85;100668.25;5095481;28;20447;-68
2022/03/12 00:02:34;;;;;;;9.23;8.43;;;;;;;1.07;65.05;100665.13;5095106;28;20441;-69
2022/03/12 00:05:04;;;;;;;10.13;8.50;;;;;;;1.21;64.81;100666.75;5095911;28;20481;-69
2022/03/12 00:07:32;;;;;;;9.40;8.13;;;;;;;1.25;64.95;100684.75;5095366;28;20880;-69
2022/03/12 00:10:00;;;;;;;8.97;8.17;;;;;;;1.22;65.02;100674.50;5095339;28;20424;-68
2022/03/12 00:12:30;;;;;;;9.73;8.93;;;;;;;1.19;65.37;100674.72;5094969;28;20952;-68
2022/03/12 00:14:57;;;;;;;8.73;8.03;;;;;;;1.16;65.34;100679.31;5095590;28;20441;-68
2022/03/12 00:17:25;;;;;;;10.33;9.40;;;;;;;1.19;64.94;100679.97;5094851;28;20444;-69
2022/03/12 00:19:52;;;;;;;9.73;8.83;;;;;;;1.14;65.32;100687.28;5094842;28;20433;-69
2022/03/12 00:22:20;;;;;;;8.80;8.10;;;;;;;1.16;66.01;100684.56;5095186;28;20441;-69
2022/03/12 00:24:48;;;;;;;9.87;8.73;;;;;;;1.18;65.45;100680.88;5095237;28;20437;-69
2022/03/12 00:27:16;;;;;;;9.73;8.80;;;;;;;1.23;64.80;100681.44;5094636;28;21011;-69
2022/03/12 00:29:44;;;;;;;10.13;9.13;;;;;;;1.18;64.71;100675.66;5095204;28;20444;-69
2022/03/12 00:32:12;;;;;;;9.33;7.93;;;;;;;1.20;65.05;100686.88;5094418;28;20475;-69
2022/03/12 00:34:39;;;;;;;10.80;9.80;;;;;;;1.23;64.91;100681.44;5095124;28;20525;-69
2022/03/12 00:37:06;;;;;;;10.60;8.63;;;;;;;1.20;65.36;100679.00;5094719;28;20444;-69
2022/03/12 00:39:32;;;;;;;8.87;8.17;;;;;;;1.23;65.46;100686.66;5094792;28;20869;-69
2022/03/12 00:42:00;;;;;;;9.73;8.83;;;;;;;1.29;65.33;100683.59;5095502;28;20437;-69
2022/03/12 00:44:27;;;;;;;9.63;8.63;;;;;;;1.28;65.20;100684.53;5094662;28;20503;-69
2022/03/12 00:46:54;;;;;;;8.67;7.97;;;;;;;1.35;63.26;100698.84;5095094;28;20472;-68
2022/03/12 00:49:20;;;;;;;7.50;6.90;;;;;;;1.33;62.51;100698.13;5094262;28;20508;-68
2022/03/12 00:51:48;;;;;;;7.90;7.30;;;;;;;1.08;64.00;100702.56;5094160;28;21041;-70
2022/03/12 00:54:15;;;;;;;8.23;7.53;;;;;;;0.59;66.90;100693.81;5094022;28;20442;-68
2022/03/12 00:56:42;;;;;;;8.93;8.00;;;;;;;0.47;67.95;100695.47;5094046;28;20469;-68
2022/03/12 00:59:10;;;;;;;8.73;7.93;;;;;;;0.43;70.65;100704.47;5095226;28;20441;-69
2022/03/12 01:01:36;;;;;;;9.60;8.27;;;;;;;0.43;73.56;100709.69;5094883;28;20436;-68
2022/03/12 01:04:04;;;;;;;9.63;8.73;;;;;;;-0.12;77.09;100690.75;5093893;28;20473;-68
2022/03/12 01:06:30;;;;;;;9.30;8.33;;;;;;;-0.35;79.25;100699.22;5093884;28;21000;-68
2022/03/12 01:08:57;;;;;;;9.20;8.30;;;;;;;-0.53;81.07;100708.22;5094194;28;20438;-68
2022/03/12 01:11:24;;;;;;;9.33;8.53;;;;;;;-0.87;83.00;100716.47;5094360;28;20494;-69
2022/03/12 01:13:51;;;;;;;8.77;7.97;;;;;;;-0.73;83.23;100711.25;5093795;28;20433;-69
2022/03/12 01:16:19;;;;;;;9.43;8.53;;;;;;;-0.73;83.49;100700.81;5094816;28;20510;-69
2022/03/12 01:18:46;;;;;;;8.07;7.40;;;;;;;-0.86;83.90;100718.97;5093695;28;20524;-69
2022/03/12 01:21:17;;;;;;;9.17;8.27;;;;;;;-0.79;84.23;100715.06;5094318;28;20429;-69
2022/03/12 01:23:44;;;;;;;8.63;8.00;;;;;;;-1.15;85.04;100726.88;5094784;28;20437;-68
2022/03/12 01:26:12;;;;;;;8.60;8.00;;;;;;;-1.25;86.04;100710.13;5093406;28;20468;-68
2022/03/12 01:28:39;;;;;;;10.03;8.77;;;;;;;-1.18;85.41;100716.66;5093496;28;20506;-69
2022/03/12 01:31:06;;;;;;;8.97;8.23;;;;;;;-1.23;85.78;100719.53;5093809;28;20448;-68
2022/03/12 01:33:34;;;;;;;10.03;8.40;;;;;;;-1.25;85.67;100715.34;5093418;28;20522;-69
2022/03/12 01:36:01;;;;;;;9.00;8.27;;;;;;;-1.41;85.83;100715.44;5094166;28;20478;-69
2022/03/12 01:38:33;;;;;;;9.90;8.90;;;;;;;-1.28;85.98;100721.59;5093567;28;20441;-68
2022/03/12 01:41:03;;;;;;;11.47;8.50;;;;;;;-1.34;85.40;100726.31;5094115;28;20425;-68
2022/03/12 01:43:31;;;;;;;9.70;8.90;;;;;;;-1.71;86.28;100711.19;5093698;28;20445;-68
2022/03/12 01:46:00;;;;;;;10.30;9.03;;;;;;;-1.72;86.44;100722.53;5094161;28;20477;-67
2022/03/12 01:48:28;;;;;;;11.77;10.13;;;;;;;-1.66;86.53;100723.00;5093694;28;20451;-68
2022/03/12 01:50:57;;;;;;;14.20;10.97;;;;;;;-1.56;86.53;100718.09;5093333;28;20452;-68
2022/03/12 01:53:26;;;;;;;19.90;11.77;;;;;;;-1.65;86.21;100722.09;5093034;28;20502;-68
2022/03/12 01:55:54;;;;;;;17.80;11.13;;;;;;;-1.54;85.94;100737.09;5094099;28;20444;-68
2022/03/12 01:58:21;;;;;;;15.87;11.03;;;;;;;-1.54;85.55;100724.91;5093817;28;20433;-68
2022/03/12 02:00:49;;;;;;;17.90;11.00;;;;;;;-1.54;85.86;100734.47;5093762;28;20437;-68
2022/03/12 02:03:18;;;;;;;14.07;11.73;;;;;;;-1.49;85.81;100737.63;5093702;28;20498;-69
2022/03/12 02:05:45;;;;;;;19.67;11.97;;;;;;;-1.55;85.10;100733.63;5092122;28;20534;-69
2022/03/12 02:08:14;;;;;;;16.37;11.80;;;;;;;-1.42;85.04;100734.56;5093291;28;20469;-68
2022/03/12 02:10:42;;;;;;;18.27;11.83;;;;;;;-1.46;84.71;100729.66;5093040;28;20441;-68
2022/03/12 02:13:10;;;;;;;18.17;11.17;;;;;;;-1.47;84.71;100725.38;5093770;28;20438;-69
2022/03/12 02:15:36;;;;;;;14.73;11.03;;;;;;;-1.49;84.21;100725.47;5093723;28;20445;-69
2022/03/12 02:18:03;;;;;;;19.03;11.03;;;;;;;-1.55;84.45;100719.78;5092906;28;20498;-69
2022/03/12 02:20:30;;;;;;;15.93;12.13;;;;;;;-1.41;84.01;100727.63;5092777;28;20433;-69
2022/03/12 02:22:57;;;;;;;16.40;11.10;;;;;;;-1.60;84.34;100730.47;5092843;28;20441;-69
2022/03/12 02:25:30;;;;;;;13.87;10.17;;;;;;;-1.46;84.51;100722.66;5092792;28;20433;-69
2022/03/12 02:27:58;;;;;;;18.50;10.77;;;;;;;-1.37;83.88;100726.50;5093177;28;20473;-69
2022/03/12 02:30:32;;;;;;;16.40;11.10;;;;;;;-1.43;83.16;100726.88;5092375;28;21029;-69
2022/03/12 02:33:00;;;;;;;16.47;10.13;;;;;;;-1.35;82.92;100735.91;5093067;28;20437;-69
2022/03/12 02:35:29;;;;;;;12.63;10.17;;;;;;;-1.37;82.78;100727.34;5092600;28;20976;-69
2022/03/12 02:37:57;;;;;;;14.57;10.17;;;;;;;-1.31;82.42;100731.38;5092277;28;20945;-69
2022/03/12 02:40:23;;;;;;;13.10;9.23;;;;;;;-1.35;81.86;100733.28;5092542;28;20510;-69
2022/03/12 02:42:57;;;;;;;11.50;8.97;;;;;;;-1.40;81.92;100731.88;5092171;28;20450;-69
2022/03/12 02:45:25;;;;;;;12.53;8.83;;;;;;;-1.45;82.26;100734.78;5092988;28;20868;-69
2022/03/12 02:47:52;;;;;;;11.30;9.30;;;;;;;-1.38;81.79;100737.84;5092318;28;20507;-69
2022/03/12 02:50:19;;;;;;;12.93;9.57;;;;;;;-1.28;81.99;100742.44;5092458;28;20440;-68
2022/03/12 02:52:46;;;;;;;9.83;8.70;;;;;;;-1.23;80.99;100742.13;5093188;28;20552;-68
2022/03/12 02:55:16;;;;;;;11.70;9.13;;;;;;;-1.21;81.15;100737.69;5092146;28;20437;-69
2022/03/12 02:57:47;;;;;;;12.43;8.63;;;;;;;-1.19;81.25;100735.81;5091982;28;20944;-69
2022/03/12 03:00:16;;;;;;;13.77;8.90;;;;;;;-1.18;81.10;100734.91;5091923;28;20851;-68
2022/03/12 03:02:51;;;;;;;12.07;8.53;;;;;;;-1.29;80.99;100734.69;5092038;28;20448;-68
2022/03/12 03:05:35;;;;;;;9.47;8.57;;;;;;;-1.23;81.55;100732.56;5092363;28;20483;-68
2022/03/12 03:08:04;;;;;;;10.73;8.03;;;;;;;-1.27;80.38;100738.03;5091918;28;21013;-68
2022/03/12 03:10:34;;;;;;;9.80;8.27;;;;;;;-1.28;80.77;100736.38;5092118;28;20441;-68
2022/03/12 03:13:16;;;;;;;13.57;8.63;;;;;;;-1.14;80.22;100739.84;5091887;28;20751;-68
2022/03/12 03:15:46;;;;;;;8.40;7.60;;;;;;;-1.12;79.51;100742.34;5092829;28;20437;-68
2022/03/12 03:18:13;;;;;;;9.83;8.73;;;;;;;-1.06;79.00;100750.63;5095705;28;20527;-68
2022/03/12 03:20:40;;;;;;;8.90;8.00;;;;;;;-0.98;78.86;100739.75;5095792;28;20944;-67
2022/03/12 03:23:08;;;;;;;8.73;7.83;;;;;;;-0.89;77.99;100739.19;5095785;28;20437;-68
2022/03/12 03:25:35;;;;;;;10.23;8.17;;;;;;;-0.84;77.21;100742.34;5096058;28;20473;-68
2022/03/12 03:28:02;;;;;;;8.50;7.73;;;;;;;-0.78;76.36;100748.03;5096013;28;20476;-68
2022/03/12 03:30:33;;;;;;;9.53;8.63;;;;;;;-0.73;76.03;100750.38;5096012;28;20524;-67
2022/03/12 03:33:01;;;;;;;9.43;8.73;;;;;;;-0.77;75.04;100754.91;5096387;28;20482;-68
2022/03/12 03:35:27;;;;;;;8.10;7.40;;;;;;;-0.74;75.01;100751.28;5096817;28;20870;-68
2022/03/12 03:37:54;;;;;;;7.30;6.73;;;;;;;-0.76;74.83;100753.16;5095949;28;20445;-67
2022/03/12 03:40:21;;;;;;;12.67;7.57;;;;;;;-0.96;74.44;100751.78;5096369;28;20486;-67
2022/03/12 03:42:48;;;;;;;8.47;7.60;;;;;;;-0.80;74.23;100755.13;5095723;28;20433;-67
2022/03/12 03:45:21;;;;;;;7.97;7.37;;;;;;;-0.78;73.34;100755.00;5095519;28;20455;-67
2022/03/12 03:47:48;;;;;;;8.97;7.77;;;;;;;-0.76;71.88;100743.56;5096773;28;20490;-67
2022/03/12 03:50:16;;;;;;;9.63;8.13;;;;;;;-0.62;72.19;100764.41;5095316;28;21009;-67
2022/03/12 03:52:43;;;;;;;8.53;7.63;;;;;;;-0.54;71.18;100753.50;5095640;28;20429;-67
2022/03/12 03:55:10;;;;;;;10.73;7.27;;;;;;;-0.67;70.08;100760.41;5095534;28;20432;-68
2022/03/12 03:57:36;;;;;;;9.60;7.57;;;;;;;-0.55;69.56;100767.50;5095189;28;20510;-68
2022/03/12 04:00:04;;;;;;;8.23;7.53;;;;;;;-0.48;68.85;100771.41;5096332;28;20444;-68
2022/03/12 04:02:31;;;;;;;7.97;7.13;;;;;;;-0.44;68.60;100772.88;5095435;28;20444;-68
2022/03/12 04:04:58;;;;;;;6.80;6.30;;;;;;;-0.36;67.82;100781.06;5096156;28;20481;-68
2022/03/12 04:07:26;;;;;;;7.97;6.37;;;;;;;-0.41;65.95;100786.56;5095556;28;20483;-68
2022/03/12 04:09:53;;;;;;;7.93;7.27;;;;;;;-0.38;66.13;100789.00;5095303;28;20440;-69
2022/03/12 04:12:20;;;;;;;8.10;7.50;;;;;;;-0.33;65.62;100792.16;5095297;28;20524;-68
2022/03/12 04:14:47;;;;;;;6.77;6.13;;;;;;;-0.30;65.12;100801.56;5094875;28;20437;-68
2022/03/12 04:17:18;;;;;;;7.27;6.40;;;;;;;-0.52;65.09;100799.44;5094831;28;20444;-68
2022/03/12 04:19:47;;;;;;;7.07;6.57;;;;;;;-0.44;65.23;100804.19;5095738;28;20429;-68
2022/03/12 04:22:16;;;;;;;7.50;6.80;;;;;;;-0.40;65.27;100806.50;5094737;28;20949;-68
2022/03/12 04:24:44;;;;;;;7.40;6.90;;;;;;;-0.35;65.24;100799.25;5095256;28;20464;-68
2022/03/12 04:27:11;;;;;;;8.17;6.77;;;;;;;-0.21;64.73;100808.81;5094045;28;20480;-68
2022/03/12 04:29:38;;;;;;;8.47;6.30;;;;;;;-0.09;64.42;100813.25;5095742;28;20476;-67
2022/03/12 04:32:08;;;;;;;8.10;7.10;;;;;;;-0.07;63.69;100814.03;5094893;28;20437;-68
2022/03/12 04:34:35;;;;;;;6.83;6.23;;;;;;;-0.48;60.07;100824.41;5094538;28;20900;-68
2022/03/12 04:37:02;;;;;;;5.70;5.30;;;;;;;-0.34;61.00;100823.56;5094976;28;20445;-68
2022/03/12 04:39:28;;;;;;;7.13;5.47;;;;;;;-0.27;60.57;100827.47;5094673;28;20445;-68
2022/03/12 04:41:57;;;;;;;5.73;5.33;;;;;;;-0.22;60.34;100834.09;5095479;28;20499;-68
2022/03/12 04:44:24;;;;;;;6.70;6.00;;;;;;;-0.23;60.41;100828.97;5094528;28;20444;-68
2022/03/12 04:46:51;;;;;;;10.73;7.50;;;;;;;-0.15;60.47;100837.16;5094382;28;20819;-67
2022/03/12 04:49:19;;;;;;;7.50;6.60;;;;;;;-0.04;60.58;100839.94;5095271;28;20502;-68
2022/03/12 04:51:46;;;;;;;6.67;6.00;;;;;;;-0.11;59.95;100833.44;5095269;28;20437;-68
2022/03/12 04:54:13;;;;;;;7.33;6.63;;;;;;;-0.08;59.57;100836.66;5094193;28;20437;-68
2022/03/12 04:56:39;;;;;;;6.77;6.27;;;;;;;-0.01;59.24;100840.59;5094113;28;20498;-68
2022/03/12 04:59:07;;;;;;;6.40;5.80;;;;;;;0.08;59.53;100838.31;5094063;28;20446;-67
2022/03/12 05:01:34;;;;;;;7.40;6.80;;;;;;;0.16;58.64;100851.75;5094322;28;20429;-67
2022/03/12 05:04:00;;;;;;;8.30;6.83;;;;;;;0.17;58.02;100848.19;5094108;28;20469;-67
2022/03/12 05:06:27;;;;;;;8.87;6.57;;;;;;;0.27;57.69;100844.88;5094833;28;20491;-67
2022/03/12 05:08:55;;;;;;;11.43;7.03;;;;;;;0.29;56.84;100843.03;5094171;28;20472;-67
2022/03/12 05:11:22;;;;;;;7.40;6.73;;;;;;;0.32;56.72;100842.00;5094648;28;20437;-68
2022/03/12 05:13:53;;;;;;;6.80;5.90;;;;;;;0.47;56.71;100844.44;5093744;28;20968;-68
2022/03/12 05:16:21;;;;;;;6.93;6.37;;;;;;;0.64;55.73;100838.94;5094621;28;20520;-68
2022/03/12 05:18:48;;;;;;;9.60;7.13;;;;;;;0.65;54.76;100848.47;5094043;28;20437;-68
2022/03/12 05:21:15;;;;;;;9.77;7.33;;;;;;;0.73;55.37;100848.81;5093622;28;21020;-69
2022/03/12 05:23:41;;;;;;;8.57;7.20;;;;;;;0.83;55.62;100849.88;5083321;28;21031;-69
2022/03/12 05:26:08;;;;;;;14.80;9.20;;;;;;;0.62;56.66;100846.06;5082289;28;20429;-68
2022/03/12 05:28:35;;;;;;;12.80;9.00;;;;;;;0.53;59.35;100851.88;5081255;28;20535;-68
2022/03/12 05:31:04;;;;;;;13.60;7.97;;;;;;;0.55;59.60;100836.94;5084152;28;20802;-68
2022/03/12 05:33:33;;;;;;;12.83;7.73;;;;;;;0.62;59.02;100840.84;5082885;28;20472;-69
2022/03/12 05:35:59;;;;;;;16.30;9.47;;;;;;;0.62;59.40;100846.06;5083951;28;20511;-69
2022/03/12 05:38:27;;;;;;;10.37;9.13;;;;;;;0.59;59.07;100841.03;5081149;28;20510;-68
2022/03/12 05:40:54;;;;;;;14.50;9.83;;;;;;;0.66;60.15;100850.16;5082602;28;21013;-68
2022/03/12 05:43:21;;;;;;;16.97;10.67;;;;;;;0.94;59.41;100851.78;5082378;28;20434;-70
2022/03/12 05:45:51;;;;;;;21.13;11.27;;;;;;;1.22;58.77;100852.44;5081920;28;20441;-68
2022/03/12 05:48:19;;;;;;;22.40;15.07;;;;;;;1.35;58.14;100861.13;5083838;28;20553;-68
2022/03/12 05:50:48;;;;;;;21.00;12.17;;;;;;;1.55;57.29;100863.22;5082707;28;20434;-69
2022/03/12 05:53:18;;;;;;;13.93;10.33;;;;;;;1.88;57.04;100875.75;5081089;28;20434;-69
2022/03/12 05:55:47;;;;;;;15.27;11.20;;;;;;;2.05;57.77;100871.03;5087183;28;20428;-68
2022/03/12 05:58:17;;;;;;;15.60;12.17;;;;;;;2.10;58.08;100876.75;5081008;28;20464;-68
2022/03/12 06:00:44;;;;;;;20.70;14.10;;;;;;;2.33;59.06;100875.94;5078757;28;20429;-67
2022/03/12 06:03:11;;;;;;;14.80;10.17;;;;;;;2.61;59.04;100869.56;5083428;28;20429;-67
2022/03/12 06:05:40;;;;;;;24.43;14.03;;;;;;;3.04;58.75;100875.91;5081022;28;20845;-69
2022/03/12 06:08:09;;;;;;;27.20;14.97;;;;;;;3.33;57.88;100878.03;5072615;28;20474;-69
2022/03/12 06:10:37;;;;;;;17.73;12.03;;;;;;;3.14;59.27;100869.84;5072262;28;20496;-68
2022/03/12 06:13:05;;;;;;;26.23;15.70;;;;;;;2.91;60.11;100878.63;5072613;28;20865;-67
2022/03/12 06:15:32;;;;;;;15.83;11.97;;;;;;;2.63;63.30;100872.88;5072487;28;20592;-69
2022/03/12 06:17:59;;;;;;;17.20;12.60;;;;;;;2.72;61.82;100883.56;5072380;28;20480;-68
2022/03/12 06:20:26;;;;;;;18.37;12.70;;;;;;;2.95;63.04;100884.47;5072199;28;20470;-69
2022/03/12 06:22:54;;;;;;;21.90;12.97;;;;;;;3.35;62.47;100894.50;5072494;28;20503;-66
2022/03/12 06:25:24;;;;;;;23.00;14.47;;;;;;;3.12;62.22;100898.03;5072043;28;20977;-68
2022/03/12 06:27:54;;;;;;;40.67;16.33;;;;;;;3.12;62.25;100886.69;5071624;28;20923;-68
2022/03/12 06:30:24;;;;;;;27.47;16.50;;;;;;;3.21;62.17;100902.59;5072123;28;20449;-68
2022/03/12 06:32:51;;;;;;;42.73;14.77;;;;;;;3.52;62.11;100901.09;5072038;28;20438;-66
2022/03/12 06:35:19;;;;;;;15.70;12.60;;;;;;;3.95;59.62;100907.34;5072062;28;20933;-67
2022/03/12 06:37:46;;;;;;;15.83;11.90;;;;;;;3.87;61.00;100910.56;5072165;28;20474;-67
2022/03/12 06:40:15;;;;;;;18.20;12.67;;;;;;;4.01;60.36;100915.56;5072218;28;20529;-66
2022/03/12 06:42:44;;;;;;;28.07;15.90;;;;;;;3.49;62.25;100914.47;5072144;28;20446;-67
2022/03/12 06:45:15;;;;;;;20.63;13.90;;;;;;;3.47;61.07;100914.56;5071778;28;20442;-68
2022/03/12 06:47:43;;;;;;;18.23;12.50;;;;;;;3.63;60.54;100919.53;5072315;28;20211;-68
2022/03/12 06:50:12;;;;;;;19.40;13.97;;;;;;;3.60;61.87;100920.56;5078326;28;20528;-68
2022/03/12 06:52:41;;;;;;;21.90;13.80;;;;;;;3.87;59.18;100923.72;5092327;28;20444;-67
2022/03/12 06:55:09;;;;;;;23.67;14.57;;;;;;;4.08;59.26;100943.06;5090986;28;20445;-69
2022/03/12 06:57:36;;;;;;;19.53;14.00;;;;;;;3.88;60.03;100935.88;5092389;28;20568;-68
2022/03/12 07:00:07;;;;;;;17.80;13.90;;;;;;;3.61;59.50;100931.91;5092570;28;20508;-69
2022/03/12 07:02:35;;;;;;;17.23;12.70;;;;;;;3.53;61.04;100924.63;5086318;28;20531;-71
2022/03/12 07:05:02;;;;;;;19.63;12.73;;;;;;;3.38;60.43;100920.53;5082755;28;21090;-77
2022/03/12 07:07:28;;;;;;;16.47;12.37;;;;;;;3.22;61.80;100925.25;5089158;28;20617;-70
2022/03/12 07:09:55;;;;;;;14.13;11.57;;;;;;;3.33;65.06;100912.16;5091244;28;20443;-70
2022/03/12 07:12:22;;;;;;;18.40;11.77;;;;;;;3.58;63.75;100919.84;5091702;28;20476;-69
2022/03/12 07:14:49;;;;;;;19.10;12.97;;;;;;;3.69;66.94;100905.91;5090979;28;20445;-74
2022/03/12 07:17:17;;;;;;;18.33;13.63;;;;;;;3.68;63.09;100925.25;5089714;28;20551;-69
2022/03/12 07:19:44;;;;;;;14.17;12.67;;;;;;;3.51;62.20;100929.16;5082524;28;20483;-70
2022/03/12 07:22:11;;;;;;;16.27;12.77;;;;;;;3.82;61.84;100931.13;5071752;28;20201;-71
2022/03/12 07:24:37;;;;;;;15.33;13.23;;;;;;;3.96;61.10;100944.03;5083875;28;20441;-70
2022/03/12 07:27:05;;;;;;;19.03;14.80;;;;;;;4.26;60.26;100925.88;5091375;28;20202;-71
2022/03/12 07:29:32;;;;;;;23.40;13.80;;;;;;;4.28;62.77;100938.88;5091519;28;20477;-70
2022/03/12 07:31:59;;;;;;;13.40;12.00;;;;;;;4.13;58.35;100961.94;5091742;28;20433;-69
2022/03/12 07:34:27;;;;;;;19.87;13.93;;;;;;;3.98;59.13;100963.16;5091794;28;20195;-69
2022/03/12 07:36:56;;;;;;;21.50;13.20;;;;;;;4.13;62.29;100940.91;5092308;28;20195;-69
2022/03/12 07:39:22;;;;;;;18.87;15.53;;;;;;;4.46;59.64;100954.03;5091733;28;20255;-69
2022/03/12 07:41:49;;;;;;;14.97;13.30;;;;;;;4.38;58.60;100963.50;5092064;28;20203;-69
2022/03/12 07:44:16;;;;;;;20.00;14.37;;;;;;;4.22;61.80;100949.88;5092018;28;20290;-68
2022/03/12 07:46:43;;;;;;;16.73;14.20;;;;;;;4.45;61.90;100936.59;5092013;28;20199;-68
2022/03/12 07:49:10;;;;;;;19.30;14.13;;;;;;;6.33;69.00;100938.25;5091770;28;20905;-72
2022/03/12 07:51:41;;;;;;;18.27;13.23;;;;;;;7.26;58.80;100951.75;5091149;28;20249;-71
2022/03/12 07:54:08;;;;;;;18.40;13.23;;;;;;;8.32;56.52;100958.50;5091248;28;20225;-70
2022/03/12 07:56:35;;;;;;;20.43;15.57;;;;;;;8.90;47.22;100968.66;5091815;28;20191;-70
2022/03/12 07:59:03;;;;;;;20.77;12.30;;;;;;;8.75;66.46;100924.28;5091074;28;20225;-77
2022/03/12 08:01:29;;;;;;;12.50;11.13;;;;;;;9.91;62.08;100932.72;5091380;28;20195;-76
2022/03/12 08:03:56;;;;;;;20.00;15.03;;;;;;;9.96;43.53;100954.31;5093775;28;20682;-70
2022/03/12 08:06:23;;;;;;;26.63;14.23;;;;;;;9.87;42.51;100944.66;5095618;28;20184;-70
2022/03/12 08:08:51;;;;;;;16.77;14.57;;;;;;;8.21;42.16;100926.94;5094667;28;20215;-70
2022/03/12 08:11:28;;;;;;;22.93;13.17;;;;;;;7.92;45.72;100924.38;5095365;28;20191;-70
2022/03/12 08:13:57;;;;;;;13.70;12.43;;;;;;;8.08;43.77;100926.41;5095417;28;20240;-70
2022/03/12 08:16:24;;;;;;;12.97;11.83;;;;;;;7.78;45.04;100921.34;5093580;28;20274;-68
2022/03/12 08:18:52;;;;;;;13.47;12.27;;;;;;;7.34;47.18;100920.19;5094551;28;20201;-69
2022/03/12 08:21:20;;;;;;;16.17;14.40;;;;;;;6.82;47.00;100925.03;5094670;28;20256;-70
2022/03/12 08:23:47;;;;;;;16.77;13.10;;;;;;;6.32;47.92;100920.78;5094683;28;20273;-65
2022/03/12 08:26:15;;;;;;;12.77;11.33;;;;;;;6.24;47.18;100923.25;5093998;28;20206;-68
2022/03/12 08:28:42;;;;;;;13.30;11.67;;;;;;;5.84;46.86;100935.53;5074458;28;20752;-67
2022/03/12 08:31:10;;;;;;;13.30;11.90;;;;;;;5.38;49.07;100942.03;5074470;28;20197;-67
2022/03/12 08:33:37;;;;;;;14.80;12.77;;;;;;;5.04;51.32;100935.25;5084432;28;20195;-67
2022/03/12 08:36:05;;;;;;;14.93;13.23;;;;;;;4.97;51.49;100936.69;5091985;28;20712;-67
2022/03/12 08:38:32;;;;;;;15.03;12.13;;;;;;;4.56;52.95;100941.84;5093927;28;20773;-68
2022/03/12 08:40:59;;;;;;;18.50;13.83;;;;;;;4.46;52.85;100948.78;5092149;28;20195;-69
2022/03/12 08:43:27;;;;;;;12.50;11.13;;;;;;;4.59;51.43;100946.03;5094346;28;20199;-68
2022/03/12 08:45:54;;;;;;;10.50;9.60;;;;;;;4.26;48.09;100952.16;5097430;28;20199;-68
2022/03/12 08:48:21;;;;;;;39.03;12.63;;;;;;;4.22;50.33;100955.16;5114104;28;20226;-77
2022/03/12 08:50:48;;;;;;;15.37;10.97;;;;;;;4.27;48.69;100956.47;5090419;28;20211;-69
2022/03/12 08:53:16;;;;;;;15.07;10.93;;;;;;;4.19;48.74;100961.50;5098145;28;20239;-69
2022/03/12 08:55:43;;;;;;;12.93;10.30;;;;;;;3.86;49.45;100948.31;5113871;28;20206;-69
2022/03/12 08:58:09;;;;;;;15.47;11.13;;;;;;;3.94;50.42;100951.22;5106826;28;20187;-69
2022/03/12 09:00:38;;;;;;;12.23;11.03;;;;;;;3.78;50.72;100955.97;5094202;28;20453;-67
2022/03/12 09:03:07;;;;;;;12.03;10.77;;;;;;;4.10;52.96;100951.69;5094352;28;20194;-67
2022/03/12 09:05:34;;;;;;;19.23;11.97;;;;;;;4.45;54.30;100960.25;5093181;28;20227;-69
2022/03/12 09:08:01;;;;;;;23.83;9.47;;;;;;;5.20;82.04;100934.81;5089127;28;20310;-75
2022/03/12 09:10:28;;;;;;;10.10;9.10;;;;;;;6.63;57.54;100988.34;5088167;28;20587;-68
2022/03/12 09:12:55;;;;;;;8.80;7.90;;;;;;;6.68;42.67;100978.22;5089309;28;20621;-69
2022/03/12 09:15:24;;;;;;;12.13;10.07;;;;;;;6.61;43.06;100975.28;5089162;28;20217;-71
2022/03/12 09:17:52;;;;;;;10.30;8.30;;;;;;;6.07;40.70;100968.69;5074037;28;20652;-69
2022/03/12 09:20:19;;;;;;;11.30;7.60;;;;;;;5.88;40.26;100985.22;5081191;28;20197;-68
2022/03/12 09:22:47;;;;;;;8.00;7.23;;;;;;;5.75;40.19;100977.50;5088962;28;20195;-67
2022/03/12 09:25:15;;;;;;;8.03;7.43;;;;;;;5.27;39.61;100984.22;5097928;28;20195;-67
2022/03/12 09:27:44;;;;;;;8.53;7.70;;;;;;;5.41;39.48;100978.66;5091016;28;20191;-68
2022/03/12 09:30:13;;;;;;;9.87;6.90;;;;;;;5.99;40.58;100963.22;5093046;28;20337;-68
2022/03/12 09:32:40;;;;;;;8.37;7.20;;;;;;;6.36;38.67;100964.41;5092735;28;20202;-68
2022/03/12 09:35:10;;;;;;;34.20;9.97;;;;;;;7.07;43.71;100961.50;5091509;28;20191;-72
2022/03/12 09:37:38;;;;;;;9.70;7.07;;;;;;;7.37;35.23;100971.91;5090244;28;20201;-72
2022/03/12 09:40:06;;;;;;;14.80;7.10;;;;;;;7.50;36.07;100959.25;5093105;28;20208;-69
2022/03/12 09:42:34;;;;;;;9.13;6.80;;;;;;;7.32;35.60;100960.94;5073687;28;20638;-70
2022/03/12 09:45:02;;;;;;;10.47;6.27;;;;;;;7.27;34.82;100963.16;5079267;28;20202;-69
2022/03/12 09:47:28;;;;;;;7.57;6.87;;;;;;;6.96;33.80;100954.53;5090157;28;20211;-69
2022/03/12 09:49:55;;;;;;;7.67;6.87;;;;;;;7.14;35.62;100952.06;5092904;28;20276;-69
2022/03/12 09:52:23;;;;;;;6.07;5.43;;;;;;;7.37;31.61;100969.28;5093019;28;20280;-69
2022/03/12 09:54:50;;;;;;;5.33;4.90;;;;;;;7.30;30.88;100968.16;5093256;28;20280;-69
2022/03/12 09:57:17;;;;;;;5.27;4.87;;;;;;;7.43;32.00;100960.81;5098038;28;20187;-69
2022/03/12 09:59:44;;;;;;;6.03;5.63;;;;;;;7.68;31.97;100945.16;5113202;28;20198;-71
2022/03/12 10:02:10;;;;;;;7.17;6.57;;;;;;;8.40;43.61;100935.63;5113262;28;20259;-68
2022/03/12 10:04:37;;;;;;;6.13;5.63;;;;;;;8.43;31.75;100939.78;5112525;28;20283;-67
2022/03/12 10:07:06;;;;;;;14.47;13.03;;;;;;;8.80;34.16;100929.97;5112226;28;20293;-67
2022/03/12 10:09:34;;;;;;;7.43;6.97;;;;;;;9.03;37.55;100924.06;5083121;28;20230;-67
2022/03/12 10:12:01;;;;;;;7.80;7.20;;;;;;;10.12;48.75;100911.13;5092869;28;20187;-66
2022/03/12 10:14:30;;;;;;;8.57;6.83;;;;;;;10.47;32.29;100935.69;5092655;28;20198;-63
2022/03/12 10:16:56;;;;;;;5.97;5.40;;;;;;;11.00;39.00;100914.09;5072313;28;20250;-63
2022/03/12 10:19:24;;;;;;;6.00;5.40;;;;;;;11.29;27.51;100926.91;5072582;28;20250;-64
2022/03/12 10:21:52;;;;;;;5.93;5.53;;;;;;;10.47;27.58;100908.31;5072472;28;20229;-64
2022/03/12 10:24:19;;;;;;;6.23;5.73;;;;;;;10.07;27.86;100913.44;5072184;28;20690;-64
2022/03/12 10:26:47;;;;;;;11.03;6.03;;;;;;;9.79;28.55;100902.13;5071587;28;20243;-67
2022/03/12 10:29:14;;;;;;;6.90;6.23;;;;;;;9.55;29.33;100903.78;5072465;28;20234;-67
2022/03/12 10:31:42;;;;;;;8.80;5.97;;;;;;;9.47;29.07;100903.72;5083960;28;20234;-68
2022/03/12 10:34:18;;;;;;;6.57;6.00;;;;;;;8.82;28.61;100891.72;5092542;28;20199;-69
2022/03/12 10:36:45;;;;;;;6.20;5.80;;;;;;;8.46;30.43;100902.44;5092339;28;20195;-72
2022/03/12 10:39:13;;;;;;;5.67;5.27;;;;;;;7.96;29.79;100901.13;5092404;28;20641;-68
2022/03/12 10:41:40;;;;;;;6.70;6.07;;;;;;;7.66;31.21;100894.25;5091640;28;20620;-68
2022/03/12 10:44:10;;;;;;;8.37;7.00;;;;;;;7.61;31.08;100893.00;5071801;28;20682;-67
2022/03/12 10:46:41;;;;;;;6.97;6.47;;;;;;;7.09;31.44;100862.63;5072153;28;20267;-67
2022/03/12 10:49:08;;;;;;;7.00;6.37;;;;;;;7.14;33.08;100878.06;5071637;28;20207;-66
2022/03/12 10:51:38;;;;;;;6.80;6.07;;;;;;;7.19;33.83;100889.03;5070419;28;20217;-66
2022/03/12 10:54:08;;;;;;;7.23;5.93;;;;;;;7.12;34.51;100891.41;5072119;28;20286;-66
2022/03/12 10:56:42;;;;;;;6.00;5.60;;;;;;;7.06;33.12;100885.84;5071674;28;20192;-66
2022/03/12 10:59:14;;;;;;;8.13;6.47;;;;;;;6.82;34.51;100890.72;5082868;28;20273;-67
2022/03/12 11:01:47;;;;;;;6.10;5.70;;;;;;;6.67;36.02;100892.06;5091536;28;20189;-67
2022/03/12 11:04:22;;;;;;;5.37;4.97;;;;;;;6.42;36.71;100884.66;5092329;28;20233;-67
2022/03/12 11:06:50;;;;;;;10.07;6.47;;;;;;;6.33;38.47;100875.75;5088629;28;20195;-68
2022/03/12 11:09:18;;;;;;;25.23;10.10;;;;;;;6.46;37.63;100876.34;5071785;28;20223;-67
2022/03/12 11:11:46;;;;;;;7.83;6.40;;;;;;;6.41;37.62;100875.09;5087956;28;20187;-65
2022/03/12 11:14:21;;;;;;;6.70;6.20;;;;;;;6.26;37.92;100874.63;5091938;28;20267;-65
2022/03/12 11:16:54;;;;;;;6.23;5.83;;;;;;;5.60;39.99;100864.63;5071788;28;20266;-67
2022/03/12 11:19:37;;;;;;;6.00;5.70;;;;;;;5.27;40.44;100860.41;5071729;28;20215;-66
2022/03/12 11:22:10;;;;;;;7.27;6.77;;;;;;;5.61;40.41;100856.56;5081900;28;20195;-66
2022/03/12 11:24:46;;;;;;;7.33;6.73;;;;;;;5.58;42.45;100853.38;5089989;28;20230;-66